Airfield :
LOGIN :

Register | Disclaimer

   EN    FR    IT 

 










Legend :    VFR   Marginal VFR   IFR   Intensive IFR   Very Intensive IFR
Visi :
Ceiling :
>= 8 km
>= 3000ft
5 to 8 km
1000 to 3000 ft
1500m to 5 km
500 to 1000 ft
800 to 1500m
200 to 500 ft
< 800m
< 200 ft
Symbols :   Thunderstorms  Fog  Heavy snow  Heavy precipitations  Wind > 20 kt
SIGMETs :     Misc.  Thunderstorms  Icing  Turbulence  Mountain Waves  Volcanic Ashes







- Airport Elevation : 390 ft
- IATA code : NQY
- Download approach charts


EGHQ - Newquay

CURRENT METAR :
  • 181650Z 20006KT 9999 SCT017 08/06 Q1007

EXPIRED METARs :
  • 181620Z 23006KT 9999 SCT015 08/06 Q1007
  • 181550Z 23008KT 9999 SCT015 09/07 Q1007
  • 181520Z 25009KT 9999 SCT015 09/07 Q1007
  • 181450Z 23009KT 9999 -SHRA FEW015 SCT047 09/07 Q1007

TAF AMD TAF EGHQ
Valid from the 18 at 15:00 until the 18 at 22:00 UTC


181506Z 1815/1822 25008KT 9999 SCT025
PROB30
TEMPO 1815/1818 7000 SHRA BKN010
TEMPO 1818/1822 7000 SHRA BKN006
PROB30
TEMPO 1818/1822 4000 +SHRAGS BKN004
No reported NOTAMs for that airfield.



MET'MAP, your aeronautical weather chart ! - Copyright ORBIFLY December 2007 - Disclaimer

ORBIFLY MET'MAP TEAM :

Programming & Development : Alexandra Zaïnal
Concept & Development : Baudouin d'Aumeries
Co-Development & Prog : Marc-Olivier Méhu
Technical & hardware support : Manuel Goepfert

Contact : metmap@orbifly.com




SOURCES & CREDITS :

   NOAA